sensor_id;sensor_type;location;lat;lon;timestamp;P1;durP1;ratioP1;P2;durP2;ratioP2
50429;SDS011;36359;41.556;-8.418;2024-03-06T00:02:07;28.10;;;12.77;;
50429;SDS011;36359;41.556;-8.418;2024-03-06T00:04:33;18.20;;;11.37;;
50429;SDS011;36359;41.556;-8.418;2024-03-06T00:06:59;24.37;;;11.20;;
50429;SDS011;36359;41.556;-8.418;2024-03-06T00:09:26;24.17;;;10.57;;
50429;SDS011;36359;41.556;-8.418;2024-03-06T00:11:52;22.50;;;9.77;;
50429;SDS011;36359;41.556;-8.418;2024-03-06T00:14:19;17.80;;;9.20;;
50429;SDS011;36359;41.556;-8.418;2024-03-06T00:16:47;20.93;;;8.90;;
50429;SDS011;36359;41.556;-8.418;2024-03-06T00:19:13;16.77;;;8.37;;
50429;SDS011;36359;41.556;-8.418;2024-03-06T00:21:39;19.63;;;8.60;;
50429;SDS011;36359;41.556;-8.418;2024-03-06T00:24:05;20.40;;;8.57;;
50429;SDS011;36359;41.556;-8.418;2024-03-06T00:26:30;15.90;;;8.00;;
50429;SDS011;36359;41.556;-8.418;2024-03-06T00:28:57;16.43;;;7.47;;
50429;SDS011;36359;41.556;-8.418;2024-03-06T00:31:23;16.70;;;7.40;;
50429;SDS011;36359;41.556;-8.418;2024-03-06T00:33:48;17.90;;;8.43;;
50429;SDS011;36359;41.556;-8.418;2024-03-06T00:36:14;15.50;;;8.00;;
50429;SDS011;36359;41.556;-8.418;2024-03-06T00:38:40;18.67;;;8.83;;
50429;SDS011;36359;41.556;-8.418;2024-03-06T00:41:05;19.17;;;7.87;;
50429;SDS011;36359;41.556;-8.418;2024-03-06T00:43:31;18.17;;;8.23;;
50429;SDS011;36359;41.556;-8.418;2024-03-06T00:45:57;17.27;;;8.60;;
50429;SDS011;36359;41.556;-8.418;2024-03-06T00:48:24;23.07;;;9.07;;
50429;SDS011;36359;41.556;-8.418;2024-03-06T00:50:50;20.60;;;9.47;;
50429;SDS011;36359;41.556;-8.418;2024-03-06T00:53:16;19.13;;;7.87;;
50429;SDS011;36359;41.556;-8.418;2024-03-06T00:55:41;20.23;;;9.03;;
50429;SDS011;36359;41.556;-8.418;2024-03-06T00:58:07;20.37;;;8.90;;
50429;SDS011;36359;41.556;-8.418;2024-03-06T01:00:33;15.87;;;8.17;;
50429;SDS011;36359;41.556;-8.418;2024-03-06T01:02:59;17.53;;;8.57;;
50429;SDS011;36359;41.556;-8.418;2024-03-06T01:05:24;17.63;;;9.07;;
50429;SDS011;36359;41.556;-8.418;2024-03-06T01:07:50;14.77;;;8.97;;
50429;SDS011;36359;41.556;-8.418;2024-03-06T01:10:16;16.10;;;7.83;;
50429;SDS011;36359;41.556;-8.418;2024-03-06T01:12:42;23.23;;;8.20;;
50429;SDS011;36359;41.556;-8.418;2024-03-06T01:15:11;16.50;;;8.27;;
50429;SDS011;36359;41.556;-8.418;2024-03-06T01:17:37;18.93;;;8.30;;
50429;SDS011;36359;41.556;-8.418;2024-03-06T01:20:03;18.10;;;7.80;;
50429;SDS011;36359;41.556;-8.418;2024-03-06T01:22:32;13.77;;;7.03;;
50429;SDS011;36359;41.556;-8.418;2024-03-06T01:25:00;16.40;;;7.07;;
50429;SDS011;36359;41.556;-8.418;2024-03-06T01:27:27;18.37;;;6.97;;
50429;SDS011;36359;41.556;-8.418;2024-03-06T01:29:53;18.70;;;7.60;;
50429;SDS011;36359;41.556;-8.418;2024-03-06T01:32:18;17.33;;;7.80;;
50429;SDS011;36359;41.556;-8.418;2024-03-06T01:34:44;18.70;;;7.80;;
50429;SDS011;36359;41.556;-8.418;2024-03-06T01:37:10;17.60;;;7.33;;
50429;SDS011;36359;41.556;-8.418;2024-03-06T01:39:36;14.93;;;5.77;;
50429;SDS011;36359;41.556;-8.418;2024-03-06T01:42:02;18.13;;;6.73;;
50429;SDS011;36359;41.556;-8.418;2024-03-06T01:44:28;16.80;;;7.23;;
50429;SDS011;36359;41.556;-8.418;2024-03-06T01:46:54;16.77;;;8.13;;
50429;SDS011;36359;41.556;-8.418;2024-03-06T01:49:20;18.60;;;9.13;;
50429;SDS011;36359;41.556;-8.418;2024-03-06T01:51:54;17.57;;;9.07;;
50429;SDS011;36359;41.556;-8.418;2024-03-06T01:54:22;19.00;;;8.10;;
50429;SDS011;36359;41.556;-8.418;2024-03-06T01:56:49;20.90;;;9.77;;
50429;SDS011;36359;41.556;-8.418;2024-03-06T01:59:17;17.70;;;7.57;;
50429;SDS011;36359;41.556;-8.418;2024-03-06T02:01:46;17.07;;;6.57;;
50429;SDS011;36359;41.556;-8.418;2024-03-06T02:04:12;16.13;;;7.13;;
50429;SDS011;36359;41.556;-8.418;2024-03-06T02:06:39;19.93;;;7.87;;
50429;SDS011;36359;41.556;-8.418;2024-03-06T02:09:05;14.73;;;7.37;;
50429;SDS011;36359;41.556;-8.418;2024-03-06T02:11:32;16.80;;;7.33;;
50429;SDS011;36359;41.556;-8.418;2024-03-06T02:13:58;20.93;;;7.93;;
50429;SDS011;36359;41.556;-8.418;2024-03-06T02:16:24;23.97;;;8.93;;
50429;SDS011;36359;41.556;-8.418;2024-03-06T02:18:51;19.87;;;8.70;;
50429;SDS011;36359;41.556;-8.418;2024-03-06T02:21:19;19.27;;;8.87;;
50429;SDS011;36359;41.556;-8.418;2024-03-06T02:23:49;18.05;;;8.93;;
50429;SDS011;36359;41.556;-8.418;2024-03-06T02:26:16;21.53;;;9.00;;
50429;SDS011;36359;41.556;-8.418;2024-03-06T02:28:47;15.10;;;7.00;;
50429;SDS011;36359;41.556;-8.418;2024-03-06T02:31:14;15.23;;;6.87;;
50429;SDS011;36359;41.556;-8.418;2024-03-06T02:33:40;15.53;;;7.37;;
50429;SDS011;36359;41.556;-8.418;2024-03-06T02:36:07;13.80;;;6.73;;
50429;SDS011;36359;41.556;-8.418;2024-03-06T02:38:33;10.97;;;5.53;;
50429;SDS011;36359;41.556;-8.418;2024-03-06T02:40:59;15.40;;;4.90;;
50429;SDS011;36359;41.556;-8.418;2024-03-06T02:43:25;18.77;;;5.53;;
50429;SDS011;36359;41.556;-8.418;2024-03-06T02:45:51;13.90;;;5.23;;
50429;SDS011;36359;41.556;-8.418;2024-03-06T02:48:17;13.97;;;4.67;;
50429;SDS011;36359;41.556;-8.418;2024-03-06T02:50:42;10.23;;;4.20;;
50429;SDS011;36359;41.556;-8.418;2024-03-06T02:53:08;11.90;;;4.40;;
50429;SDS011;36359;41.556;-8.418;2024-03-06T02:55:34;14.00;;;5.33;;
50429;SDS011;36359;41.556;-8.418;2024-03-06T02:58:03;11.67;;;6.43;;
50429;SDS011;36359;41.556;-8.418;2024-03-06T03:00:30;12.95;;;6.65;;
50429;SDS011;36359;41.556;-8.418;2024-03-06T03:02:57;14.17;;;7.27;;
50429;SDS011;36359;41.556;-8.418;2024-03-06T03:05:23;12.70;;;5.30;;
50429;SDS011;36359;41.556;-8.418;2024-03-06T03:07:49;14.90;;;5.30;;
50429;SDS011;36359;41.556;-8.418;2024-03-06T03:10:15;18.27;;;6.97;;
50429;SDS011;36359;41.556;-8.418;2024-03-06T03:12:41;15.07;;;6.13;;
50429;SDS011;36359;41.556;-8.418;2024-03-06T03:15:07;15.23;;;5.60;;
50429;SDS011;36359;41.556;-8.418;2024-03-06T03:17:34;13.70;;;5.67;;
50429;SDS011;36359;41.556;-8.418;2024-03-06T03:20:00;13.53;;;4.23;;
50429;SDS011;36359;41.556;-8.418;2024-03-06T03:22:28;8.57;;;3.90;;
50429;SDS011;36359;41.556;-8.418;2024-03-06T03:24:54;11.03;;;4.37;;
50429;SDS011;36359;41.556;-8.418;2024-03-06T03:27:19;9.80;;;3.63;;
50429;SDS011;36359;41.556;-8.418;2024-03-06T03:29:45;11.00;;;3.87;;
50429;SDS011;36359;41.556;-8.418;2024-03-06T03:32:11;9.10;;;3.30;;
50429;SDS011;36359;41.556;-8.418;2024-03-06T03:34:37;10.47;;;3.63;;
50429;SDS011;36359;41.556;-8.418;2024-03-06T03:37:02;11.17;;;4.50;;
50429;SDS011;36359;41.556;-8.418;2024-03-06T03:41:57;12.47;;;5.90;;
50429;SDS011;36359;41.556;-8.418;2024-03-06T03:44:23;13.77;;;6.13;;
50429;SDS011;36359;41.556;-8.418;2024-03-06T03:46:48;10.47;;;5.33;;
50429;SDS011;36359;41.556;-8.418;2024-03-06T03:49:14;13.57;;;4.43;;
50429;SDS011;36359;41.556;-8.418;2024-03-06T03:51:40;10.27;;;3.80;;
50429;SDS011;36359;41.556;-8.418;2024-03-06T03:54:06;10.17;;;3.57;;
50429;SDS011;36359;41.556;-8.418;2024-03-06T03:56:32;11.50;;;4.10;;
50429;SDS011;36359;41.556;-8.418;2024-03-06T03:58:58;12.47;;;3.83;;
50429;SDS011;36359;41.556;-8.418;2024-03-06T04:01:24;11.97;;;4.03;;
50429;SDS011;36359;41.556;-8.418;2024-03-06T04:03:51;10.47;;;4.63;;
50429;SDS011;36359;41.556;-8.418;2024-03-06T04:06:17;13.17;;;3.87;;
50429;SDS011;36359;41.556;-8.418;2024-03-06T04:08:44;14.17;;;4.57;;
50429;SDS011;36359;41.556;-8.418;2024-03-06T04:11:10;10.37;;;3.80;;
50429;SDS011;36359;41.556;-8.418;2024-03-06T04:13:36;10.20;;;3.63;;
50429;SDS011;36359;41.556;-8.418;2024-03-06T04:16:03;9.60;;;3.37;;
50429;SDS011;36359;41.556;-8.418;2024-03-06T04:18:30;12.20;;;3.63;;
50429;SDS011;36359;41.556;-8.418;2024-03-06T04:21:04;9.13;;;3.40;;
50429;SDS011;36359;41.556;-8.418;2024-03-06T04:23:30;12.83;;;3.17;;
50429;SDS011;36359;41.556;-8.418;2024-03-06T04:25:56;7.60;;;2.80;;
50429;SDS011;36359;41.556;-8.418;2024-03-06T04:28:22;8.27;;;3.10;;
50429;SDS011;36359;41.556;-8.418;2024-03-06T04:30:48;7.43;;;2.60;;
50429;SDS011;36359;41.556;-8.418;2024-03-06T04:33:14;9.30;;;2.90;;
50429;SDS011;36359;41.556;-8.418;2024-03-06T04:35:40;7.93;;;2.77;;
50429;SDS011;36359;41.556;-8.418;2024-03-06T04:38:06;10.67;;;2.90;;
50429;SDS011;36359;41.556;-8.418;2024-03-06T04:40:33;8.03;;;2.70;;
50429;SDS011;36359;41.556;-8.418;2024-03-06T04:42:59;9.50;;;2.67;;
50429;SDS011;36359;41.556;-8.418;2024-03-06T04:45:26;6.50;;;1.83;;
50429;SDS011;36359;41.556;-8.418;2024-03-06T04:47:52;8.00;;;2.40;;
50429;SDS011;36359;41.556;-8.418;2024-03-06T04:50:17;7.23;;;3.10;;
50429;SDS011;36359;41.556;-8.418;2024-03-06T04:52:43;10.70;;;2.87;;
50429;SDS011;36359;41.556;-8.418;2024-03-06T04:55:12;7.33;;;2.60;;
50429;SDS011;36359;41.556;-8.418;2024-03-06T04:57:42;7.57;;;3.13;;
50429;SDS011;36359;41.556;-8.418;2024-03-06T05:00:12;10.97;;;3.43;;
50429;SDS011;36359;41.556;-8.418;2024-03-06T05:02:38;9.30;;;3.57;;
50429;SDS011;36359;41.556;-8.418;2024-03-06T05:05:04;13.00;;;3.93;;
50429;SDS011;36359;41.556;-8.418;2024-03-06T05:07:30;11.33;;;4.07;;
50429;SDS011;36359;41.556;-8.418;2024-03-06T05:09:57;13.73;;;5.13;;
50429;SDS011;36359;41.556;-8.418;2024-03-06T05:12:26;10.03;;;4.47;;
50429;SDS011;36359;41.556;-8.418;2024-03-06T05:14:53;11.07;;;4.03;;
50429;SDS011;36359;41.556;-8.418;2024-03-06T05:17:19;11.73;;;3.70;;
50429;SDS011;36359;41.556;-8.418;2024-03-06T05:19:45;8.97;;;3.43;;
50429;SDS011;36359;41.556;-8.418;2024-03-06T05:22:13;12.63;;;3.17;;
50429;SDS011;36359;41.556;-8.418;2024-03-06T05:24:39;13.00;;;3.63;;
50429;SDS011;36359;41.556;-8.418;2024-03-06T05:27:06;8.03;;;2.67;;
50429;SDS011;36359;41.556;-8.418;2024-03-06T05:29:32;7.57;;;2.47;;
50429;SDS011;36359;41.556;-8.418;2024-03-06T05:31:58;10.77;;;3.13;;
50429;SDS011;36359;41.556;-8.418;2024-03-06T05:34:24;7.30;;;2.07;;
50429;SDS011;36359;41.556;-8.418;2024-03-06T05:36:50;5.77;;;2.50;;
50429;SDS011;36359;41.556;-8.418;2024-03-06T05:39:16;8.60;;;2.50;;
50429;SDS011;36359;41.556;-8.418;2024-03-06T05:41:43;9.90;;;2.50;;
50429;SDS011;36359;41.556;-8.418;2024-03-06T05:44:30;12.90;;;2.70;;
50429;SDS011;36359;41.556;-8.418;2024-03-06T05:46:56;6.30;;;2.37;;
50429;SDS011;36359;41.556;-8.418;2024-03-06T05:49:23;8.00;;;2.23;;
50429;SDS011;36359;41.556;-8.418;2024-03-06T05:51:49;7.03;;;2.00;;
50429;SDS011;36359;41.556;-8.418;2024-03-06T05:54:14;8.70;;;2.47;;
50429;SDS011;36359;41.556;-8.418;2024-03-06T05:56:40;9.90;;;3.03;;
50429;SDS011;36359;41.556;-8.418;2024-03-06T05:59:07;14.07;;;4.00;;
50429;SDS011;36359;41.556;-8.418;2024-03-06T06:01:36;10.50;;;2.73;;
50429;SDS011;36359;41.556;-8.418;2024-03-06T06:04:02;8.33;;;2.60;;
50429;SDS011;36359;41.556;-8.418;2024-03-06T06:06:28;7.77;;;2.73;;
50429;SDS011;36359;41.556;-8.418;2024-03-06T06:08:53;7.50;;;2.30;;
50429;SDS011;36359;41.556;-8.418;2024-03-06T06:11:19;7.93;;;2.70;;
50429;SDS011;36359;41.556;-8.418;2024-03-06T06:13:45;11.23;;;2.57;;
50429;SDS011;36359;41.556;-8.418;2024-03-06T06:16:11;8.13;;;2.63;;
50429;SDS011;36359;41.556;-8.418;2024-03-06T06:18:39;10.77;;;2.93;;
50429;SDS011;36359;41.556;-8.418;2024-03-06T06:21:07;11.33;;;3.10;;
50429;SDS011;36359;41.556;-8.418;2024-03-06T06:23:33;7.83;;;2.80;;
50429;SDS011;36359;41.556;-8.418;2024-03-06T06:26:00;8.23;;;2.90;;
50429;SDS011;36359;41.556;-8.418;2024-03-06T06:28:26;10.20;;;3.00;;
50429;SDS011;36359;41.556;-8.418;2024-03-06T06:30:51;8.30;;;3.03;;
50429;SDS011;36359;41.556;-8.418;2024-03-06T06:33:18;9.37;;;2.77;;
50429;SDS011;36359;41.556;-8.418;2024-03-06T06:35:44;8.57;;;2.90;;
50429;SDS011;36359;41.556;-8.418;2024-03-06T06:38:10;9.93;;;2.50;;
50429;SDS011;36359;41.556;-8.418;2024-03-06T06:43:08;9.77;;;2.77;;
50429;SDS011;36359;41.556;-8.418;2024-03-06T06:45:34;7.77;;;2.30;;
50429;SDS011;36359;41.556;-8.418;2024-03-06T06:48:00;6.63;;;1.93;;
50429;SDS011;36359;41.556;-8.418;2024-03-06T06:50:26;5.03;;;2.00;;
50429;SDS011;36359;41.556;-8.418;2024-03-06T06:52:52;9.77;;;2.40;;
50429;SDS011;36359;41.556;-8.418;2024-03-06T06:55:18;8.53;;;2.00;;
50429;SDS011;36359;41.556;-8.418;2024-03-06T06:57:48;8.13;;;2.40;;
50429;SDS011;36359;41.556;-8.418;2024-03-06T07:00:15;7.13;;;2.30;;
50429;SDS011;36359;41.556;-8.418;2024-03-06T07:02:44;8.73;;;2.73;;
50429;SDS011;36359;41.556;-8.418;2024-03-06T07:05:10;7.60;;;2.67;;
50429;SDS011;36359;41.556;-8.418;2024-03-06T07:07:37;7.10;;;2.33;;
50429;SDS011;36359;41.556;-8.418;2024-03-06T07:10:03;5.07;;;2.23;;
50429;SDS011;36359;41.556;-8.418;2024-03-06T07:12:30;6.53;;;2.20;;
50429;SDS011;36359;41.556;-8.418;2024-03-06T07:14:56;7.53;;;2.03;;
50429;SDS011;36359;41.556;-8.418;2024-03-06T07:17:22;10.17;;;1.80;;
50429;SDS011;36359;41.556;-8.418;2024-03-06T07:19:48;7.00;;;1.83;;
50429;SDS011;36359;41.556;-8.418;2024-03-06T07:22:14;6.73;;;2.00;;
50429;SDS011;36359;41.556;-8.418;2024-03-06T07:24:40;4.97;;;1.70;;
50429;SDS011;36359;41.556;-8.418;2024-03-06T07:27:06;5.97;;;2.00;;
50429;SDS011;36359;41.556;-8.418;2024-03-06T07:29:34;7.27;;;2.57;;
50429;SDS011;36359;41.556;-8.418;2024-03-06T07:32:00;8.77;;;2.50;;
50429;SDS011;36359;41.556;-8.418;2024-03-06T07:34:26;7.50;;;2.30;;
50429;SDS011;36359;41.556;-8.418;2024-03-06T07:36:52;7.70;;;2.57;;
50429;SDS011;36359;41.556;-8.418;2024-03-06T07:39:21;7.77;;;1.90;;
50429;SDS011;36359;41.556;-8.418;2024-03-06T07:41:47;7.60;;;1.80;;
50429;SDS011;36359;41.556;-8.418;2024-03-06T07:44:13;6.10;;;1.70;;
50429;SDS011;36359;41.556;-8.418;2024-03-06T07:46:39;7.13;;;1.93;;
50429;SDS011;36359;41.556;-8.418;2024-03-06T07:49:05;5.90;;;1.83;;
50429;SDS011;36359;41.556;-8.418;2024-03-06T07:51:31;6.73;;;1.60;;
50429;SDS011;36359;41.556;-8.418;2024-03-06T07:53:57;7.20;;;2.13;;
50429;SDS011;36359;41.556;-8.418;2024-03-06T07:56:24;5.60;;;1.90;;
50429;SDS011;36359;41.556;-8.418;2024-03-06T07:58:50;5.03;;;1.90;;
50429;SDS011;36359;41.556;-8.418;2024-03-06T08:01:16;10.90;;;2.20;;
50429;SDS011;36359;41.556;-8.418;2024-03-06T08:03:42;9.23;;;1.70;;
50429;SDS011;36359;41.556;-8.418;2024-03-06T08:06:08;8.13;;;1.80;;
50429;SDS011;36359;41.556;-8.418;2024-03-06T08:08:35;6.97;;;1.87;;
50429;SDS011;36359;41.556;-8.418;2024-03-06T08:11:02;9.27;;;1.77;;
50429;SDS011;36359;41.556;-8.418;2024-03-06T08:13:28;7.47;;;1.90;;
50429;SDS011;36359;41.556;-8.418;2024-03-06T08:15:54;17.70;;;2.50;;
50429;SDS011;36359;41.556;-8.418;2024-03-06T08:18:20;11.77;;;2.03;;
50429;SDS011;36359;41.556;-8.418;2024-03-06T08:20:49;5.33;;;1.53;;
50429;SDS011;36359;41.556;-8.418;2024-03-06T08:23:15;11.73;;;2.10;;
50429;SDS011;36359;41.556;-8.418;2024-03-06T08:25:40;6.97;;;1.70;;
50429;SDS011;36359;41.556;-8.418;2024-03-06T08:28:06;12.57;;;1.70;;
50429;SDS011;36359;41.556;-8.418;2024-03-06T08:30:32;10.23;;;1.80;;
50429;SDS011;36359;41.556;-8.418;2024-03-06T08:32:58;14.53;;;2.33;;
50429;SDS011;36359;41.556;-8.418;2024-03-06T08:35:24;6.03;;;1.57;;
50429;SDS011;36359;41.556;-8.418;2024-03-06T08:37:50;8.10;;;1.90;;
50429;SDS011;36359;41.556;-8.418;2024-03-06T08:40:16;6.43;;;1.60;;
50429;SDS011;36359;41.556;-8.418;2024-03-06T08:42:43;6.20;;;1.90;;
50429;SDS011;36359;41.556;-8.418;2024-03-06T08:45:09;9.67;;;2.10;;
50429;SDS011;36359;41.556;-8.418;2024-03-06T08:47:36;10.40;;;1.90;;
50429;SDS011;36359;41.556;-8.418;2024-03-06T08:50:02;8.00;;;2.00;;
50429;SDS011;36359;41.556;-8.418;2024-03-06T08:52:28;15.10;;;2.43;;
50429;SDS011;36359;41.556;-8.418;2024-03-06T08:54:56;6.30;;;2.50;;
50429;SDS011;36359;41.556;-8.418;2024-03-06T08:57:22;11.83;;;2.20;;
50429;SDS011;36359;41.556;-8.418;2024-03-06T08:59:51;8.27;;;2.00;;
50429;SDS011;36359;41.556;-8.418;2024-03-06T09:02:18;10.20;;;2.40;;
50429;SDS011;36359;41.556;-8.418;2024-03-06T09:04:47;19.70;;;8.77;;
50429;SDS011;36359;41.556;-8.418;2024-03-06T09:07:13;21.63;;;10.37;;
50429;SDS011;36359;41.556;-8.418;2024-03-06T09:09:39;16.53;;;5.53;;
50429;SDS011;36359;41.556;-8.418;2024-03-06T09:12:07;12.00;;;4.23;;
50429;SDS011;36359;41.556;-8.418;2024-03-06T09:14:36;11.63;;;2.53;;
50429;SDS011;36359;41.556;-8.418;2024-03-06T09:17:02;12.07;;;3.40;;
50429;SDS011;36359;41.556;-8.418;2024-03-06T09:19:28;7.87;;;2.33;;
50429;SDS011;36359;41.556;-8.418;2024-03-06T09:21:54;10.70;;;3.40;;
50429;SDS011;36359;41.556;-8.418;2024-03-06T09:24:21;11.30;;;2.70;;
50429;SDS011;36359;41.556;-8.418;2024-03-06T09:26:48;8.73;;;2.33;;
50429;SDS011;36359;41.556;-8.418;2024-03-06T09:29:14;13.23;;;3.10;;
50429;SDS011;36359;41.556;-8.418;2024-03-06T09:31:41;10.10;;;2.53;;
50429;SDS011;36359;41.556;-8.418;2024-03-06T09:34:07;10.63;;;2.43;;
50429;SDS011;36359;41.556;-8.418;2024-03-06T09:36:36;9.40;;;2.50;;
50429;SDS011;36359;41.556;-8.418;2024-03-06T09:39:02;8.93;;;3.10;;
50429;SDS011;36359;41.556;-8.418;2024-03-06T09:41:30;9.10;;;2.27;;
50429;SDS011;36359;41.556;-8.418;2024-03-06T09:43:57;8.67;;;2.80;;
50429;SDS011;36359;41.556;-8.418;2024-03-06T09:46:24;9.10;;;2.10;;
50429;SDS011;36359;41.556;-8.418;2024-03-06T09:48:52;7.63;;;1.90;;
50429;SDS011;36359;41.556;-8.418;2024-03-06T09:51:20;9.50;;;2.87;;
50429;SDS011;36359;41.556;-8.418;2024-03-06T09:53:46;7.67;;;2.27;;
50429;SDS011;36359;41.556;-8.418;2024-03-06T09:56:17;10.60;;;2.80;;
50429;SDS011;36359;41.556;-8.418;2024-03-06T09:58:44;7.83;;;2.50;;
50429;SDS011;36359;41.556;-8.418;2024-03-06T10:01:11;9.00;;;2.17;;
50429;SDS011;36359;41.556;-8.418;2024-03-06T10:03:39;16.23;;;4.57;;
50429;SDS011;36359;41.556;-8.418;2024-03-06T10:06:08;15.47;;;4.47;;
50429;SDS011;36359;41.556;-8.418;2024-03-06T10:08:35;10.43;;;3.40;;
50429;SDS011;36359;41.556;-8.418;2024-03-06T10:11:03;10.13;;;2.40;;
50429;SDS011;36359;41.556;-8.418;2024-03-06T10:13:31;9.77;;;3.03;;
50429;SDS011;36359;41.556;-8.418;2024-03-06T10:15:58;11.53;;;3.00;;
50429;SDS011;36359;41.556;-8.418;2024-03-06T10:18:26;14.70;;;3.23;;
50429;SDS011;36359;41.556;-8.418;2024-03-06T10:20:53;7.43;;;2.93;;
50429;SDS011;36359;41.556;-8.418;2024-03-06T10:23:19;9.10;;;2.97;;
50429;SDS011;36359;41.556;-8.418;2024-03-06T10:25:49;6.83;;;2.80;;
50429;SDS011;36359;41.556;-8.418;2024-03-06T10:28:17;8.07;;;2.33;;
50429;SDS011;36359;41.556;-8.418;2024-03-06T10:30:46;10.43;;;3.20;;
50429;SDS011;36359;41.556;-8.418;2024-03-06T10:33:12;10.47;;;3.10;;
50429;SDS011;36359;41.556;-8.418;2024-03-06T10:35:44;9.27;;;2.90;;
50429;SDS011;36359;41.556;-8.418;2024-03-06T10:38:13;5.72;;;1.80;;
50429;SDS011;36359;41.556;-8.418;2024-03-06T10:40:42;6.80;;;2.03;;
50429;SDS011;36359;41.556;-8.418;2024-03-06T10:43:09;5.03;;;1.58;;
50429;SDS011;36359;41.556;-8.418;2024-03-06T10:45:49;5.35;;;1.65;;
50429;SDS011;36359;41.556;-8.418;2024-03-06T10:48:16;6.32;;;1.52;;
50429;SDS011;36359;41.556;-8.418;2024-03-06T10:50:44;7.88;;;1.30;;
50429;SDS011;36359;41.556;-8.418;2024-03-06T10:53:14;4.82;;;1.77;;
50429;SDS011;36359;41.556;-8.418;2024-03-06T10:58:10;4.85;;;1.55;;
50429;SDS011;36359;41.556;-8.418;2024-03-06T11:00:40;4.72;;;2.00;;
50429;SDS011;36359;41.556;-8.418;2024-03-06T11:03:07;5.28;;;1.67;;
50429;SDS011;36359;41.556;-8.418;2024-03-06T11:05:39;6.78;;;1.50;;
50429;SDS011;36359;41.556;-8.418;2024-03-06T11:08:13;5.70;;;1.60;;
50429;SDS011;36359;41.556;-8.418;2024-03-06T11:10:43;6.28;;;1.55;;
50429;SDS011;36359;41.556;-8.418;2024-03-06T11:15:48;7.20;;;2.15;;
50429;SDS011;36359;41.556;-8.418;2024-03-06T11:23:31;5.28;;;1.50;;
50429;SDS011;36359;41.556;-8.418;2024-03-06T11:26:04;8.88;;;2.00;;
50429;SDS011;36359;41.556;-8.418;2024-03-06T11:28:32;3.90;;;1.85;;
50429;SDS011;36359;41.556;-8.418;2024-03-06T11:31:06;6.88;;;2.35;;
50429;SDS011;36359;41.556;-8.418;2024-03-06T11:33:43;7.05;;;2.70;;
50429;SDS011;36359;41.556;-8.418;2024-03-06T11:38:49;5.65;;;1.92;;
50429;SDS011;36359;41.556;-8.418;2024-03-06T11:44:01;7.60;;;2.13;;
50429;SDS011;36359;41.556;-8.418;2024-03-06T11:49:16;7.40;;;2.45;;
50429;SDS011;36359;41.556;-8.418;2024-03-06T11:51:49;8.13;;;2.25;;
50429;SDS011;36359;41.556;-8.418;2024-03-06T11:54:16;7.75;;;2.50;;
50429;SDS011;36359;41.556;-8.418;2024-03-06T11:56:48;8.30;;;1.65;;
50429;SDS011;36359;41.556;-8.418;2024-03-06T11:59:20;7.18;;;1.58;;
50429;SDS011;36359;41.556;-8.418;2024-03-06T12:01:46;3.70;;;1.45;;
50429;SDS011;36359;41.556;-8.418;2024-03-06T12:04:13;5.47;;;1.50;;
50429;SDS011;36359;41.556;-8.418;2024-03-06T12:06:38;7.13;;;1.60;;
50429;SDS011;36359;41.556;-8.418;2024-03-06T12:09:04;5.75;;;1.77;;
50429;SDS011;36359;41.556;-8.418;2024-03-06T12:11:30;5.45;;;1.90;;
50429;SDS011;36359;41.556;-8.418;2024-03-06T12:13:56;5.93;;;1.40;;
50429;SDS011;36359;41.556;-8.418;2024-03-06T12:16:22;3.85;;;2.15;;
50429;SDS011;36359;41.556;-8.418;2024-03-06T12:18:59;8.27;;;1.70;;
50429;SDS011;36359;41.556;-8.418;2024-03-06T12:21:28;4.82;;;1.50;;
50429;SDS011;36359;41.556;-8.418;2024-03-06T12:24:07;6.13;;;1.58;;
50429;SDS011;36359;41.556;-8.418;2024-03-06T12:26:34;3.92;;;1.40;;
50429;SDS011;36359;41.556;-8.418;2024-03-06T12:29:11;6.63;;;1.40;;
50429;SDS011;36359;41.556;-8.418;2024-03-06T12:31:37;5.50;;;1.30;;
50429;SDS011;36359;41.556;-8.418;2024-03-06T12:34:07;8.00;;;1.77;;
50429;SDS011;36359;41.556;-8.418;2024-03-06T12:36:34;4.32;;;1.33;;
50429;SDS011;36359;41.556;-8.418;2024-03-06T12:39:00;4.97;;;1.52;;
50429;SDS011;36359;41.556;-8.418;2024-03-06T12:41:28;6.93;;;1.92;;
50429;SDS011;36359;41.556;-8.418;2024-03-06T12:43:54;5.32;;;1.63;;
50429;SDS011;36359;41.556;-8.418;2024-03-06T12:46:21;3.83;;;1.10;;
50429;SDS011;36359;41.556;-8.418;2024-03-06T12:48:51;4.72;;;1.67;;
50429;SDS011;36359;41.556;-8.418;2024-03-06T12:51:17;3.03;;;1.20;;
50429;SDS011;36359;41.556;-8.418;2024-03-06T12:53:43;4.00;;;1.25;;
50429;SDS011;36359;41.556;-8.418;2024-03-06T12:56:09;6.18;;;1.70;;
50429;SDS011;36359;41.556;-8.418;2024-03-06T12:58:35;3.53;;;1.38;;
50429;SDS011;36359;41.556;-8.418;2024-03-06T13:01:01;3.63;;;1.10;;
50429;SDS011;36359;41.556;-8.418;2024-03-06T13:03:27;4.93;;;1.42;;
50429;SDS011;36359;41.556;-8.418;2024-03-06T13:05:53;6.30;;;1.92;;
50429;SDS011;36359;41.556;-8.418;2024-03-06T13:08:19;8.20;;;1.48;;
50429;SDS011;36359;41.556;-8.418;2024-03-06T13:10:45;6.07;;;1.23;;
50429;SDS011;36359;41.556;-8.418;2024-03-06T13:13:10;3.22;;;1.20;;
50429;SDS011;36359;41.556;-8.418;2024-03-06T13:15:37;4.32;;;1.30;;
50429;SDS011;36359;41.556;-8.418;2024-03-06T13:18:03;6.15;;;1.30;;
50429;SDS011;36359;41.556;-8.418;2024-03-06T13:20:33;4.60;;;1.20;;
50429;SDS011;36359;41.556;-8.418;2024-03-06T13:22:59;4.03;;;1.08;;
50429;SDS011;36359;41.556;-8.418;2024-03-06T13:25:25;3.75;;;1.50;;
50429;SDS011;36359;41.556;-8.418;2024-03-06T13:27:51;5.40;;;1.17;;
50429;SDS011;36359;41.556;-8.418;2024-03-06T13:30:18;4.93;;;1.17;;
50429;SDS011;36359;41.556;-8.418;2024-03-06T13:32:44;5.75;;;1.70;;
50429;SDS011;36359;41.556;-8.418;2024-03-06T13:35:13;4.28;;;1.33;;
50429;SDS011;36359;41.556;-8.418;2024-03-06T13:37:42;3.63;;;1.08;;
50429;SDS011;36359;41.556;-8.418;2024-03-06T13:40:09;4.03;;;1.45;;
50429;SDS011;36359;41.556;-8.418;2024-03-06T13:42:38;3.17;;;1.08;;
50429;SDS011;36359;41.556;-8.418;2024-03-06T13:45:08;6.10;;;1.70;;
50429;SDS011;36359;41.556;-8.418;2024-03-06T13:47:37;4.65;;;1.65;;
50429;SDS011;36359;41.556;-8.418;2024-03-06T13:50:06;3.90;;;1.23;;
50429;SDS011;36359;41.556;-8.418;2024-03-06T13:52:39;4.97;;;1.23;;
50429;SDS011;36359;41.556;-8.418;2024-03-06T13:55:05;7.10;;;1.77;;
50429;SDS011;36359;41.556;-8.418;2024-03-06T13:57:32;4.53;;;1.58;;
50429;SDS011;36359;41.556;-8.418;2024-03-06T14:00:05;7.25;;;1.40;;
50429;SDS011;36359;41.556;-8.418;2024-03-06T14:02:38;3.83;;;1.65;;
50429;SDS011;36359;41.556;-8.418;2024-03-06T14:05:05;5.13;;;1.80;;
50429;SDS011;36359;41.556;-8.418;2024-03-06T14:07:31;5.45;;;1.75;;
50429;SDS011;36359;41.556;-8.418;2024-03-06T14:09:59;7.63;;;1.63;;
50429;SDS011;36359;41.556;-8.418;2024-03-06T14:12:24;4.13;;;1.67;;
50429;SDS011;36359;41.556;-8.418;2024-03-06T14:14:50;5.00;;;1.67;;
50429;SDS011;36359;41.556;-8.418;2024-03-06T14:17:16;5.85;;;1.63;;
50429;SDS011;36359;41.556;-8.418;2024-03-06T14:19:41;5.00;;;1.52;;
50429;SDS011;36359;41.556;-8.418;2024-03-06T14:22:08;4.20;;;1.73;;
50429;SDS011;36359;41.556;-8.418;2024-03-06T14:24:34;3.60;;;1.35;;
50429;SDS011;36359;41.556;-8.418;2024-03-06T14:27:01;4.47;;;1.23;;
50429;SDS011;36359;41.556;-8.418;2024-03-06T14:29:28;4.18;;;1.60;;
50429;SDS011;36359;41.556;-8.418;2024-03-06T14:31:54;3.90;;;1.67;;
50429;SDS011;36359;41.556;-8.418;2024-03-06T14:34:20;4.43;;;1.65;;
50429;SDS011;36359;41.556;-8.418;2024-03-06T14:36:51;3.67;;;1.52;;
50429;SDS011;36359;41.556;-8.418;2024-03-06T14:39:18;3.55;;;1.20;;
50429;SDS011;36359;41.556;-8.418;2024-03-06T14:41:47;3.08;;;1.30;;
50429;SDS011;36359;41.556;-8.418;2024-03-06T14:44:13;3.85;;;1.20;;
50429;SDS011;36359;41.556;-8.418;2024-03-06T14:46:40;3.40;;;1.30;;
50429;SDS011;36359;41.556;-8.418;2024-03-06T14:49:06;2.85;;;1.35;;
50429;SDS011;36359;41.556;-8.418;2024-03-06T14:51:32;6.07;;;2.05;;